Time;durP1;ratioP1;P1;durP2;ratioP2;P2;SDS_P1;SDS_P2;PMS_P1;PMS_P2;Temp;Humidity;BMP_temperature;BMP_pressure;BME280_temperature;BME280_humidity;BME280_pressure;Samples;Min_cycle;Max_cycle;Signal;HPM_P1;HPM_P2
2024/03/21 00:01:35;;;;;;;;;;;;;;;;;;5058514;28;20286;-61
2024/03/21 00:04:01;;;;;;;;;;;;;;;;;;5062702;28;19921;-60
2024/03/21 00:06:27;;;;;;;;;;;;;;;;;;5057483;28;19924;-61
2024/03/21 00:08:53;;;;;;;;;;;;;;;;;;5068932;28;19924;-63
2024/03/21 00:11:19;;;;;;;;;;;;;;;;;;5071540;28;20027;-64
2024/03/21 00:13:45;;;;;;;;;;;;;;;;;;5063582;28;19928;-60
2024/03/21 00:16:12;;;;;;;;;;;;;;;;;;5064430;28;19924;-60
2024/03/21 00:18:38;;;;;;;;;;;;;;;;;;5062480;28;19944;-59
2024/03/21 00:21:04;;;;;;;;;;;;;;;;;;5076181;28;20373;-59
2024/03/21 00:23:30;;;;;;;;;;;;;;;;;;5086377;28;19947;-59
2024/03/21 00:25:56;;;;;;;;;;;;;;;;;;5074859;28;19920;-59
2024/03/21 00:28:21;;;;;;;;;;;;;;;;;;5073827;28;19920;-59
2024/03/21 00:30:54;;;;;;;;;;;;;;;;;;5072625;28;20631;-59
2024/03/21 00:33:20;;;;;;;;;;;;;;;;;;5069500;28;20015;-59
2024/03/21 00:35:46;;;;;;;;;;;;;;;;;;5079031;28;19920;-59
2024/03/21 00:38:12;;;;;;;;;;;;;;;;;;5083457;28;19978;-60
2024/03/21 00:40:38;;;;;;;;;;;;;;;;;;5065869;28;20385;-60
2024/03/21 00:43:04;;;;;;;;;;;;;;;;;;5081598;28;19925;-59
2024/03/21 00:45:30;;;;;;;;;;;;;;;;;;5072871;28;20257;-59
2024/03/21 00:47:56;;;;;;;;;;;;;;;;;;5059546;28;19932;-60
2024/03/21 00:50:22;;;;;;;;;;;;;;;;;;5080745;28;19927;-60
2024/03/21 00:52:48;;;;;;;;;;;;;;;;;;5062035;28;20346;-59
2024/03/21 00:55:14;;;;;;;;;;;;;;;;;;5072033;28;19973;-60
2024/03/21 00:57:40;;;;;;;;;;;;;;;;;;5080872;28;19974;-60
2024/03/21 01:00:07;;;;;;;;;;;;;;;;;;5075827;28;19927;-60
2024/03/21 01:02:34;;;;;;;;;;;;;;;;;;5070068;28;20373;-59
2024/03/21 01:05:00;;;;;;;;;;;;;;;;;;5084071;28;19920;-59
2024/03/21 01:07:27;;;;;;;;;;;;;;;;;;5091972;28;19967;-59
2024/03/21 01:09:53;;;;;;;;;;;;;;;;;;5081986;28;20370;-59
2024/03/21 01:12:19;;;;;;;;;;;;;;;;;;5087150;28;19980;-61
2024/03/21 01:14:45;;;;;;;;;;;;;;;;;;5082115;28;20430;-58
2024/03/21 01:17:11;;;;;;;;;;;;;;;;;;5080075;28;19926;-59
2024/03/21 01:19:37;;;;;;;;;;;;;;;;;;5067637;28;19920;-60
2024/03/21 01:22:03;;;;;;;;;;;;;;;;;;5071838;28;19959;-60
2024/03/21 01:24:29;;;;;;;;;;;;;;;;;;5075918;28;20273;-60
2024/03/21 01:26:55;;;;;;;;;;;;;;;;;;5071822;28;19920;-61
2024/03/21 01:29:21;;;;;;;;;;;;;;;;;;5088826;28;19927;-61
2024/03/21 01:31:47;;;;;;;;;;;;;;;;;;5087069;28;19935;-59
2024/03/21 01:34:13;;;;;;;;;;;;;;;;;;5069759;28;19928;-59
2024/03/21 01:36:46;;;;;;;;;;;;;;;;;;5066774;28;19920;-61
2024/03/21 01:39:12;;;;;;;;;;;;;;;;;;5075385;28;20588;-61
2024/03/21 01:41:38;;;;;;;;;;;;;;;;;;5075998;28;20019;-60
2024/03/21 01:44:04;;;;;;;;;;;;;;;;;;5061250;28;19964;-59
2024/03/21 01:46:31;;;;;;;;;;;;;;;;;;5073542;28;19971;-60
2024/03/21 01:48:57;;;;;;;;;;;;;;;;;;5090884;28;19929;-60
2024/03/21 01:51:22;;;;;;;;;;;;;;;;;;5070445;28;19932;-60
2024/03/21 01:53:48;;;;;;;;;;;;;;;;;;5066503;28;19924;-60
2024/03/21 01:56:14;;;;;;;;;;;;;;;;;;5073766;28;19959;-60
2024/03/21 01:58:40;;;;;;;;;;;;;;;;;;5075162;28;20663;-60
2024/03/21 02:01:06;;;;;;;;;;;;;;;;;;5066138;28;19928;-60
2024/03/21 02:03:32;;;;;;;;;;;;;;;;;;5067410;28;19925;-60
2024/03/21 02:05:58;;;;;;;;;;;;;;;;;;5071437;28;19928;-60
2024/03/21 02:08:24;;;;;;;;;;;;;;;;;;5072899;28;19924;-60
2024/03/21 02:10:50;;;;;;;;;;;;;;;;;;5067732;28;20370;-61
2024/03/21 02:13:16;;;;;;;;;;;;;;;;;;5068937;28;19977;-61
2024/03/21 02:15:41;;;;;;;;;;;;;;;;;;5076209;28;19927;-61
2024/03/21 02:18:07;;;;;;;;;;;;;;;;;;5069269;28;19951;-60
2024/03/21 02:20:33;;;;;;;;;;;;;;;;;;5077156;28;19931;-60
2024/03/21 02:23:00;;;;;;;;;;;;;;;;;;5068027;28;20008;-60
2024/03/21 02:25:26;;;;;;;;;;;;;;;;;;5071050;28;19944;-61
2024/03/21 02:27:52;;;;;;;;;;;;;;;;;;5075990;28;20313;-61
2024/03/21 02:30:18;;;;;;;;;;;;;;;;;;5085319;28;19924;-61
2024/03/21 02:32:43;;;;;;;;;;;;;;;;;;5071538;28;19998;-60
2024/03/21 02:35:09;;;;;;;;;;;;;;;;;;5080902;28;19966;-61
2024/03/21 02:37:35;;;;;;;;;;;;;;;;;;5069363;28;19970;-61
2024/03/21 02:40:01;;;;;;;;;;;;;;;;;;5061292;28;19924;-61
2024/03/21 02:42:27;;;;;;;;;;;;;;;;;;5075705;28;19931;-61
2024/03/21 02:44:53;;;;;;;;;;;;;;;;;;5067645;28;19994;-60
2024/03/21 02:47:19;;;;;;;;;;;;;;;;;;5056848;28;19928;-61
2024/03/21 02:49:45;;;;;;;;;;;;;;;;;;5054209;28;19925;-61
2024/03/21 02:52:11;;;;;;;;;;;;;;;;;;5098505;28;19936;-60
2024/03/21 02:54:37;;;;;;;;;;;;;;;;;;5069430;28;19920;-61
2024/03/21 02:57:03;;;;;;;;;;;;;;;;;;5071282;28;19928;-60
2024/03/21 02:59:29;;;;;;;;;;;;;;;;;;5065186;28;19928;-60
2024/03/21 03:01:55;;;;;;;;;;;;;;;;;;5068669;28;19966;-61
2024/03/21 03:04:21;;;;;;;;;;;;;;;;;;5061776;28;19921;-60
2024/03/21 03:06:47;;;;;;;;;;;;;;;;;;5077941;28;19920;-61
2024/03/21 03:09:13;;;;;;;;;;;;;;;;;;5075094;28;19928;-61
2024/03/21 03:11:39;;;;;;;;;;;;;;;;;;5064980;28;19943;-61
2024/03/21 03:14:05;;;;;;;;;;;;;;;;;;5072870;28;20293;-61
2024/03/21 03:16:31;;;;;;;;;;;;;;;;;;5062287;28;19928;-60
2024/03/21 03:18:57;;;;;;;;;;;;;;;;;;5057178;28;19932;-60
2024/03/21 03:21:22;;;;;;;;;;;;;;;;;;5056574;28;19927;-60
2024/03/21 03:23:48;;;;;;;;;;;;;;;;;;5075330;28;20367;-60
2024/03/21 03:26:14;;;;;;;;;;;;;;;;;;5070075;28;19931;-60
2024/03/21 03:28:40;;;;;;;;;;;;;;;;;;5070476;28;19931;-59
2024/03/21 03:31:06;;;;;;;;;;;;;;;;;;5074429;28;19924;-59
2024/03/21 03:36:17;;;;;;;;;;;;;;;;;;5058880;28;19925;-60
2024/03/21 03:38:43;;;;;;;;;;;;;;;;;;5067765;28;19931;-60
2024/03/21 03:41:09;;;;;;;;;;;;;;;;;;5065810;28;19943;-60
2024/03/21 03:43:34;;;;;;;;;;;;;;;;;;5064136;28;19928;-60
2024/03/21 03:46:00;;;;;;;;;;;;;;;;;;5063759;28;19925;-60
2024/03/21 03:48:26;;;;;;;;;;;;;;;;;;5058247;28;19921;-59
2024/03/21 03:50:52;;;;;;;;;;;;;;;;;;5061833;28;20354;-59
2024/03/21 03:53:18;;;;;;;;;;;;;;;;;;5064753;28;19935;-61
2024/03/21 03:55:44;;;;;;;;;;;;;;;;;;5071885;28;20018;-60
2024/03/21 03:58:10;;;;;;;;;;;;;;;;;;5057275;28;19960;-59
2024/03/21 04:00:36;;;;;;;;;;;;;;;;;;5054229;28;20007;-60
2024/03/21 04:03:02;;;;;;;;;;;;;;;;;;5054551;28;20061;-60
2024/03/21 04:05:28;;;;;;;;;;;;;;;;;;5082009;28;19928;-60
2024/03/21 04:07:54;;;;;;;;;;;;;;;;;;5068501;28;19928;-60
2024/03/21 04:10:20;;;;;;;;;;;;;;;;;;5066763;28;19920;-60
2024/03/21 04:12:45;;;;;;;;;;;;;;;;;;5063097;28;19963;-60
2024/03/21 04:15:11;;;;;;;;;;;;;;;;;;5069346;28;20345;-60
2024/03/21 04:17:37;;;;;;;;;;;;;;;;;;5070939;28;20381;-59
2024/03/21 04:20:06;;;;;;;;;;;;;;;;;;5076084;28;19924;-59
2024/03/21 04:22:32;;;;;;;;;;;;;;;;;;5064656;28;19928;-60
2024/03/21 04:24:58;;;;;;;;;;;;;;;;;;5069482;28;19928;-60
2024/03/21 04:27:24;;;;;;;;;;;;;;;;;;5073097;28;19977;-60
2024/03/21 04:29:50;;;;;;;;;;;;;;;;;;5089655;28;19920;-60
2024/03/21 04:32:15;;;;;;;;;;;;;;;;;;5067678;28;19929;-60
2024/03/21 04:34:41;;;;;;;;;;;;;;;;;;5089506;28;19987;-60
2024/03/21 04:37:07;;;;;;;;;;;;;;;;;;5074078;28;19970;-60
2024/03/21 04:39:33;;;;;;;;;;;;;;;;;;5077178;28;19964;-59
2024/03/21 04:41:59;;;;;;;;;;;;;;;;;;5065803;28;19983;-59
2024/03/21 04:44:25;;;;;;;;;;;;;;;;;;5070323;28;20524;-59
2024/03/21 04:46:51;;;;;;;;;;;;;;;;;;5076936;28;20015;-60
2024/03/21 04:49:17;;;;;;;;;;;;;;;;;;5063434;28;19935;-59
2024/03/21 04:51:43;;;;;;;;;;;;;;;;;;5064538;28;20632;-59
2024/03/21 04:54:09;;;;;;;;;;;;;;;;;;5073482;28;20273;-60
2024/03/21 04:56:35;;;;;;;;;;;;;;;;;;5097481;22;19928;-62
2024/03/21 04:59:00;;;;;;;;;;;;;;;;;;5050208;28;19921;-62
2024/03/21 05:01:26;;;;;;;;;;;;;;;;;;5056201;28;19920;-61
2024/03/21 05:03:52;;;;;;;;;;;;;;;;;;5061158;28;19928;-62
2024/03/21 05:06:18;;;;;;;;;;;;;;;;;;5054647;28;19947;-63
2024/03/21 05:08:44;;;;;;;;;;;;;;;;;;5055402;28;19920;-62
2024/03/21 05:11:10;;;;;;;;;;;;;;;;;;5060687;28;19925;-62
2024/03/21 05:13:37;;;;;;;;;;;;;;;;;;5052485;28;20435;-61
2024/03/21 05:16:03;;;;;;;;;;;;;;;;;;5050204;28;19920;-62
2024/03/21 05:18:29;;;;;;;;;;;;;;;;;;5052172;28;19932;-62
2024/03/21 05:20:55;;;;;;;;;;;;;;;;;;5058918;28;19949;-62
2024/03/21 05:23:21;;;;;;;;;;;;;;;;;;5053340;28;20377;-63
2024/03/21 05:25:47;;;;;;;;;;;;;;;;;;5050439;28;20396;-62
2024/03/21 05:28:12;;;;;;;;;;;;;;;;;;5051972;28;19920;-62
2024/03/21 05:30:39;;;;;;;;;;;;;;;;;;5054114;28;19929;-62
2024/03/21 05:33:08;;;;;;;;;;;;;;;;;;5057304;28;19928;-62
2024/03/21 05:35:34;;;;;;;;;;;;;;;;;;5060585;28;19927;-62
2024/03/21 05:38:00;;;;;;;;;;;;;;;;;;5054014;28;19925;-62
2024/03/21 05:40:26;;;;;;;;;;;;;;;;;;5053059;28;19920;-62
2024/03/21 05:42:51;;;;;;;;;;;;;;;;;;5053393;28;19931;-62
2024/03/21 05:45:17;;;;;;;;;;;;;;;;;;5052822;28;19921;-62
2024/03/21 05:47:43;;;;;;;;;;;;;;;;;;5049380;28;19921;-62
2024/03/21 05:50:09;;;;;;;;;;;;;;;;;;5055437;28;19965;-62
2024/03/21 05:52:36;;;;;;;;;;;;;;;;;;5055651;28;20381;-62
2024/03/21 05:55:02;;;;;;;;;;;;;;;;;;5043125;28;19929;-61
2024/03/21 05:57:28;;;;;;;;;;;;;;;;;;5045133;28;19921;-61
2024/03/21 05:59:54;;;;;;;;;;;;;;;;;;5055229;28;19924;-62
2024/03/21 06:02:20;;;;;;;;;;;;;;;;;;5033946;28;19990;-61
2024/03/21 06:04:46;;;;;;;;;;;;;;;;;;5051641;28;19933;-62
2024/03/21 06:07:12;;;;;;;;;;;;;;;;;;5049821;28;19925;-62
2024/03/21 06:09:38;;;;;;;;;;;;;;;;;;5046587;28;19925;-61
2024/03/21 06:12:04;;;;;;;;;;;;;;;;;;5042784;28;20259;-61
2024/03/21 06:14:30;;;;;;;;;;;;;;;;;;5048602;28;19921;-61
2024/03/21 06:16:56;;;;;;;;;;;;;;;;;;5046817;28;20281;-62
2024/03/21 06:19:21;;;;;;;;;;;;;;;;;;5048748;28;20428;-61
2024/03/21 06:21:47;;;;;;;;;;;;;;;;;;5046409;28;20002;-61
2024/03/21 06:24:13;;;;;;;;;;;;;;;;;;5054934;28;19920;-61
2024/03/21 06:26:39;;;;;;;;;;;;;;;;;;5045815;28;20377;-62
2024/03/21 06:29:05;;;;;;;;;;;;;;;;;;5051004;28;20429;-62
2024/03/21 06:31:31;;;;;;;;;;;;;;;;;;5046670;28;20390;-61
2024/03/21 06:33:57;;;;;;;;;;;;;;;;;;5052278;28;19955;-61
2024/03/21 06:36:23;;;;;;;;;;;;;;;;;;5051069;28;20011;-61
2024/03/21 06:38:51;;;;;;;;;;;;;;;;;;5048849;28;20061;-61
2024/03/21 06:41:17;;;;;;;;;;;;;;;;;;5054048;28;20297;-61
2024/03/21 06:43:42;;;;;;;;;;;;;;;;;;5052278;28;19925;-62
2024/03/21 06:46:08;;;;;;;;;;;;;;;;;;5051397;28;19921;-62
2024/03/21 06:48:34;;;;;;;;;;;;;;;;;;5049266;28;19929;-61
2024/03/21 06:51:00;;;;;;;;;;;;;;;;;;5054748;28;19960;-61
2024/03/21 06:53:28;;;;;;;;;;;;;;;;;;5050907;28;20119;-61
2024/03/21 06:55:54;;;;;;;;;;;;;;;;;;5054717;28;19978;-63
2024/03/21 06:58:20;;;;;;;;;;;;;;;;;;5050764;28;19924;-61
2024/03/21 07:00:46;;;;;;;;;;;;;;;;;;5045131;28;19929;-63
2024/03/21 07:03:14;;;;;;;;;;;;;;;;;;5046508;28;19936;-62
2024/03/21 07:05:40;;;;;;;;;;;;;;;;;;5047350;28;19921;-61
2024/03/21 07:08:07;;;;;;;;;;;;;;;;;;5046505;28;19932;-62
2024/03/21 07:10:32;;;;;;;;;;;;;;;;;;5041229;28;20045;-62
2024/03/21 07:12:58;;;;;;;;;;;;;;;;;;5047204;28;20017;-62
2024/03/21 07:15:24;;;;;;;;;;;;;;;;;;5043481;28;20004;-61
2024/03/21 07:17:50;;;;;;;;;;;;;;;;;;5044669;28;20366;-62
2024/03/21 07:20:16;;;;;;;;;;;;;;;;;;5049273;28;19920;-62
2024/03/21 07:22:43;;;;;;;;;;;;;;;;;;5049708;28;19931;-62
2024/03/21 07:25:10;;;;;;;;;;;;;;;;;;5048668;28;19921;-62
2024/03/21 07:27:36;;;;;;;;;;;;;;;;;;5049317;28;19920;-62
2024/03/21 07:30:08;;;;;;;;;;;;;;;;;;5050289;28;19940;-63
2024/03/21 07:32:34;;;;;;;;;;;;;;;;;;5048570;28;20003;-62
2024/03/21 07:34:59;;;;;;;;;;;;;;;;;;5037410;28;20008;-62
2024/03/21 07:37:25;;;;;;;;;;;;;;;;;;5046745;28;20222;-62
2024/03/21 07:39:51;;;;;;;;;;;;;;;;;;5048316;28;20762;-62
2024/03/21 07:42:17;;;;;;;;;;;;;;;;;;5050930;28;20011;-62
2024/03/21 07:44:43;;;;;;;;;;;;;;;;;;5054249;28;20011;-62
2024/03/21 07:47:09;;;;;;;;;;;;;;;;;;5051186;28;19924;-62
2024/03/21 07:49:35;;;;;;;;;;;;;;;;;;5051093;28;20321;-62
2024/03/21 07:52:01;;;;;;;;;;;;;;;;;;5052072;28;19924;-63
2024/03/21 07:54:29;;;;;;;;;;;;;;;;;;5046885;28;19921;-63
2024/03/21 07:56:55;;;;;;;;;;;;;;;;;;5051490;28;19928;-63
2024/03/21 07:59:22;;;;;;;;;;;;;;;;;;5051122;28;19932;-62
2024/03/21 08:01:48;;;;;;;;;;;;;;;;;;5047848;28;20058;-62
2024/03/21 08:04:15;;;;;;;;;;;;;;;;;;5049643;28;20381;-60
2024/03/21 08:06:40;;;;;;;;;;;;;;;;;;5046353;28;19931;-62
2024/03/21 08:09:06;;;;;;;;;;;;;;;;;;5053186;28;19925;-61
2024/03/21 08:11:32;;;;;;;;;;;;;;;;;;5052637;28;19931;-62
2024/03/21 08:13:58;;;;;;;;;;;;;;;;;;5052724;28;20285;-62
2024/03/21 08:16:24;;;;;;;;;;;;;;;;;;5048567;28;19932;-62
2024/03/21 08:18:50;;;;;;;;;;;;;;;;;;5050555;28;19929;-62
2024/03/21 08:21:18;;;;;;;;;;;;;;;;;;5046371;28;19928;-62
2024/03/21 08:23:44;;;;;;;;;;;;;;;;;;5050334;28;19975;-62
2024/03/21 08:26:10;;;;;;;;;;;;;;;;;;5044940;28;19921;-62
2024/03/21 08:28:35;;;;;;;;;;;;;;;;;;5055584;28;19928;-62
2024/03/21 08:31:01;;;;;;;;;;;;;;;;;;5051187;28;20182;-63
2024/03/21 08:33:28;;;;;;;;;;;;;;;;;;5054951;28;19971;-63
2024/03/21 08:35:54;;;;;;;;;;;;;;;;;;5051730;28;19977;-61
2024/03/21 08:38:20;;;;;;;;;;;;;;;;;;5048741;28;20546;-61
2024/03/21 08:40:46;;;;;;;;;;;;;;;;;;5054100;28;20012;-61
2024/03/21 08:43:11;;;;;;;;;;;;;;;;;;5053518;28;20293;-61
2024/03/21 08:45:37;;;;;;;;;;;;;;;;;;5052527;28;20035;-62
2024/03/21 08:48:03;;;;;;;;;;;;;;;;;;5057950;28;20023;-60
2024/03/21 08:50:29;;;;;;;;;;;;;;;;;;5045225;28;19924;-61
2024/03/21 08:52:55;;;;;;;;;;;;;;;;;;5053303;28;20372;-61
2024/03/21 08:55:21;;;;;;;;;;;;;;;;;;5046833;28;19967;-61
2024/03/21 08:57:47;;;;;;;;;;;;;;;;;;5048972;28;19924;-60
2024/03/21 09:00:14;;;;;;;;;;;;;;;;;;5048270;28;19921;-60
2024/03/21 09:02:40;;;;;;;;;;;;;;;;;;5052776;28;20337;-60
2024/03/21 09:05:06;;;;;;;;;;;;;;;;;;5052652;28;19921;-60
2024/03/21 09:07:32;;;;;;;;;;;;;;;;;;5046378;28;19925;-59
2024/03/21 09:09:58;;;;;;;;;;;;;;;;;;5044402;28;19933;-58
2024/03/21 09:12:24;;;;;;;;;;;;;;;;;;5051706;28;19964;-60
2024/03/21 09:14:50;;;;;;;;;;;;;;;;;;5048761;28;19956;-60
2024/03/21 09:17:16;;;;;;;;;;;;;;;;;;5050286;28;20014;-60
2024/03/21 09:19:42;;;;;;;;;;;;;;;;;;5054580;28;19935;-60
2024/03/21 09:22:08;;;;;;;;;;;;;;;;;;5051481;28;20286;-59
2024/03/21 09:24:34;;;;;;;;;;;;;;;;;;5051322;28;19928;-58
2024/03/21 09:27:00;;;;;;;;;;;;;;;;;;5050895;28;19921;-59
2024/03/21 09:29:26;;;;;;;;;;;;;;;;;;5054711;28;19929;-59
2024/03/21 09:31:52;;;;;;;;;;;;;;;;;;5047027;28;20342;-59
2024/03/21 09:34:18;;;;;;;;;;;;;;;;;;5050658;28;20351;-59
2024/03/21 09:36:46;;;;;;;;;;;;;;;;;;5047147;28;19931;-60
2024/03/21 09:39:12;;;;;;;;;;;;;;;;;;5043574;28;19928;-60
2024/03/21 09:41:38;;;;;;;;;;;;;;;;;;5043515;28;19928;-60
2024/03/21 09:44:04;;;;;;;;;;;;;;;;;;5046993;28;20255;-60
2024/03/21 09:46:30;;;;;;;;;;;;;;;;;;5054705;28;19921;-60
2024/03/21 09:48:56;;;;;;;;;;;;;;;;;;5051660;28;20023;-60
2024/03/21 09:51:22;;;;;;;;;;;;;;;;;;5046373;28;20379;-60
2024/03/21 09:53:48;;;;;;;;;;;;;;;;;;5051901;28;19921;-60
2024/03/21 09:56:14;;;;;;;;;;;;;;;;;;5054891;28;19960;-60
2024/03/21 09:58:39;;;;;;;;;;;;;;;;;;5048034;28;20022;-60
2024/03/21 10:01:05;;;;;;;;;;;;;;;;;;5058346;28;19996;-60
2024/03/21 10:03:31;;;;;;;;;;;;;;;;;;5060332;28;20386;-60
2024/03/21 10:05:57;;;;;;;;;;;;;;;;;;5054971;28;20003;-60
2024/03/21 10:08:23;;;;;;;;;;;;;;;;;;5047267;28;19929;-60
2024/03/21 10:10:49;;;;;;;;;;;;;;;;;;5051823;28;19937;-60
2024/03/21 10:13:15;;;;;;;;;;;;;;;;;;5042295;28;19928;-60
2024/03/21 10:15:41;;;;;;;;;;;;;;;;;;5060717;28;20007;-59
2024/03/21 10:18:07;;;;;;;;;;;;;;;;;;5058018;28;20309;-59
2024/03/21 10:20:33;;;;;;;;;;;;;;;;;;5059096;28;19924;-59
2024/03/21 10:22:59;;;;;;;;;;;;;;;;;;5047156;28;19922;-60
2024/03/21 10:25:25;;;;;;;;;;;;;;;;;;5052178;28;20799;-60
2024/03/21 10:27:51;;;;;;;;;;;;;;;;;;5047701;28;19929;-60
2024/03/21 10:30:17;;;;;;;;;;;;;;;;;;5048037;28;19925;-60
2024/03/21 10:32:43;;;;;;;;;;;;;;;;;;5050877;28;19921;-60
2024/03/21 10:35:09;;;;;;;;;;;;;;;;;;5058288;28;20004;-59
2024/03/21 10:37:35;;;;;;;;;;;;;;;;;;5051195;28;20087;-59
2024/03/21 10:40:01;;;;;;;;;;;;;;;;;;5048444;28;19935;-59
2024/03/21 10:42:27;;;;;;;;;;;;;;;;;;5048524;28;19928;-59
2024/03/21 10:44:55;;;;;;;;;;;;;;;;;;5047282;28;19944;-59
2024/03/21 10:47:21;;;;;;;;;;;;;;;;;;5047425;28;20023;-59
2024/03/21 10:49:46;;;;;;;;;;;;;;;;;;5049649;28;20062;-59
2024/03/21 10:52:12;;;;;;;;;;;;;;;;;;5047360;28;19989;-60
2024/03/21 10:54:38;;;;;;;;;;;;;;;;;;5049087;28;19928;-60
2024/03/21 10:57:04;;;;;;;;;;;;;;;;;;5047428;28;20090;-60
2024/03/21 10:59:30;;;;;;;;;;;;;;;;;;5041177;28;20370;-62
2024/03/21 11:01:56;;;;;;;;;;;;;;;;;;5045049;28;19920;-61
2024/03/21 11:04:23;;;;;;;;;;;;;;;;;;5057044;28;19931;-62
2024/03/21 11:06:51;;;;;;;;;;;;;;;;;;5044819;28;20342;-62
2024/03/21 11:09:18;;;;;;;;;;;;;;;;;;5044603;28;19932;-62
2024/03/21 11:11:44;;;;;;;;;;;;;;;;;;5049970;28;19967;-62
2024/03/21 11:14:09;;;;;;;;;;;;;;;;;;5050011;28;19929;-62
2024/03/21 11:16:37;;;;;;;;;;;;;;;;;;5048733;28;19978;-62
2024/03/21 11:19:03;;;;;;;;;;;;;;;;;;5052972;28;20419;-63
2024/03/21 11:21:29;;;;;;;;;;;;;;;;;;5054469;28;19921;-62
2024/03/21 11:23:55;;;;;;;;;;;;;;;;;;5054993;28;19920;-60
2024/03/21 11:26:21;;;;;;;;;;;;;;;;;;5054073;28;19968;-61
2024/03/21 11:28:49;;;;;;;;;;;;;;;;;;5055615;28;20368;-60
2024/03/21 11:31:15;;;;;;;;;;;;;;;;;;5046287;28;19924;-60
2024/03/21 11:33:41;;;;;;;;;;;;;;;;;;5043054;28;20023;-61
2024/03/21 11:36:06;;;;;;;;;;;;;;;;;;5044611;28;20387;-61
2024/03/21 11:38:32;;;;;;;;;;;;;;;;;;5033486;28;19925;-61
2024/03/21 11:40:58;;;;;;;;;;;;;;;;;;5049295;28;19925;-61
2024/03/21 11:43:24;;;;;;;;;;;;;;;;;;5055437;28;19939;-61
2024/03/21 11:45:50;;;;;;;;;;;;;;;;;;5050847;28;20283;-61
2024/03/21 11:48:20;;;;;;;;;;;;;;;;;;5052104;28;19928;-61
2024/03/21 11:50:46;;;;;;;;;;;;;;;;;;5052115;28;19979;-61
2024/03/21 11:53:12;;;;;;;;;;;;;;;;;;5054340;28;20313;-61
2024/03/21 11:55:38;;;;;;;;;;;;;;;;;;5052753;28;19933;-61
2024/03/21 11:58:04;;;;;;;;;;;;;;;;;;5048382;28;19971;-61
2024/03/21 12:00:30;;;;;;;;;;;;;;;;;;5052943;28;19936;-61
2024/03/21 12:02:56;;;;;;;;;;;;;;;;;;5050145;28;19921;-61
2024/03/21 12:05:22;;;;;;;;;;;;;;;;;;5051452;28;19936;-59
2024/03/21 12:07:48;;;;;;;;;;;;;;;;;;5052069;28;20369;-61
2024/03/21 12:10:14;;;;;;;;;;;;;;;;;;5049315;28;19932;-61
2024/03/21 12:12:40;;;;;;;;;;;;;;;;;;5047020;28;19921;-61
2024/03/21 12:15:06;;;;;;;;;;;;;;;;;;5046859;28;19924;-61
2024/03/21 12:17:32;;;;;;;;;;;;;;;;;;5046219;28;20078;-61
2024/03/21 12:19:58;;;;;;;;;;;;;;;;;;5048137;28;20007;-61
2024/03/21 12:22:24;;;;;;;;;;;;;;;;;;5047738;28;19929;-61
2024/03/21 12:24:50;;;;;;;;;;;;;;;;;;5050979;28;19921;-61
2024/03/21 12:27:16;;;;;;;;;;;;;;;;;;5108416;22;19929;-60
2024/03/21 12:29:44;;;;;;;;;;;;;;;;;;5072666;28;19929;-60
2024/03/21 12:32:09;;;;;;;;;;;;;;;;;;5069436;28;20444;-61
2024/03/21 12:34:35;;;;;;;;;;;;;;;;;;5049986;28;20012;-60
2024/03/21 12:37:01;;;;;;;;;;;;;;;;;;5070982;28;19968;-60
2024/03/21 12:39:28;;;;;;;;;;;;;;;;;;5072992;28;19975;-60
2024/03/21 12:41:54;;;;;;;;;;;;;;;;;;5069996;28;19935;-60
2024/03/21 12:44:20;;;;;;;;;;;;;;;;;;5062982;28;19920;-60
2024/03/21 12:46:46;;;;;;;;;;;;;;;;;;5068998;28;19963;-60
2024/03/21 12:49:12;;;;;;;;;;;;;;;;;;5070166;28;20395;-60
2024/03/21 12:51:38;;;;;;;;;;;;;;;;;;5069431;28;19928;-60
2024/03/21 12:54:04;;;;;;;;;;;;;;;;;;5072258;28;19921;-61
2024/03/21 12:56:30;;;;;;;;;;;;;;;;;;5074209;28;20370;-60
2024/03/21 12:58:56;;;;;;;;;;;;;;;;;;5065274;28;19975;-60
2024/03/21 13:01:22;;;;;;;;;;;;;;;;;;5068703;28;19928;-60
2024/03/21 13:03:48;;;;;;;;;;;;;;;;;;5070990;28;19927;-60
2024/03/21 13:06:13;;;;;;;;;;;;;;;;;;5063346;28;20007;-60
2024/03/21 13:08:39;;;;;;;;;;;;;;;;;;5070558;28;20320;-60
2024/03/21 13:11:05;;;;;;;;;;;;;;;;;;5072282;28;19978;-60
2024/03/21 13:13:31;;;;;;;;;;;;;;;;;;5071908;28;19932;-60
2024/03/21 13:15:58;;;;;;;;;;;;;;;;;;5067567;28;19939;-60
2024/03/21 13:18:24;;;;;;;;;;;;;;;;;;5067636;28;19999;-60
2024/03/21 13:20:49;;;;;;;;;;;;;;;;;;5069989;28;19999;-60
2024/03/21 13:23:15;;;;;;;;;;;;;;;;;;5060829;28;19954;-60
2024/03/21 13:25:41;;;;;;;;;;;;;;;;;;5063847;28;19925;-60
2024/03/21 13:28:07;;;;;;;;;;;;;;;;;;5068103;28;19924;-60
2024/03/21 13:30:33;;;;;;;;;;;;;;;;;;5070250;28;20277;-60
2024/03/21 13:33:00;;;;;;;;;;;;;;;;;;5072923;28;19926;-60
2024/03/21 13:35:26;;;;;;;;;;;;;;;;;;5069597;28;19955;-60
2024/03/21 13:37:51;;;;;;;;;;;;;;;;;;5073808;28;20006;-60
2024/03/21 13:40:17;;;;;;;;;;;;;;;;;;5064399;28;19928;-60
2024/03/21 13:42:43;;;;;;;;;;;;;;;;;;5063820;28;19921;-60
2024/03/21 13:45:09;;;;;;;;;;;;;;;;;;5062379;28;19990;-60
2024/03/21 13:47:36;;;;;;;;;;;;;;;;;;5069193;28;19927;-60
2024/03/21 13:50:02;;;;;;;;;;;;;;;;;;5067131;28;20614;-60
2024/03/21 13:52:28;;;;;;;;;;;;;;;;;;5060279;28;20015;-60
2024/03/21 13:54:54;;;;;;;;;;;;;;;;;;5066179;28;20409;-60
2024/03/21 13:57:20;;;;;;;;;;;;;;;;;;5060531;28;19944;-60
2024/03/21 13:59:47;;;;;;;;;;;;;;;;;;5068437;28;20425;-60
2024/03/21 14:02:13;;;;;;;;;;;;;;;;;;5067551;28;19928;-60
2024/03/21 14:04:39;;;;;;;;;;;;;;;;;;5068651;28;20415;-60
2024/03/21 14:07:04;;;;;;;;;;;;;;;;;;5059979;28;19921;-60
2024/03/21 14:09:30;;;;;;;;;;;;;;;;;;5068470;28;19929;-60
2024/03/21 14:11:56;;;;;;;;;;;;;;;;;;5069564;28;19925;-60
2024/03/21 14:14:24;;;;;;;;;;;;;;;;;;5071509;28;19931;-60
2024/03/21 14:16:50;;;;;;;;;;;;;;;;;;5069909;28;19920;-60
2024/03/21 14:19:16;;;;;;;;;;;;;;;;;;5086152;28;20054;-60
2024/03/21 14:21:42;;;;;;;;;;;;;;;;;;5071253;28;19973;-60
2024/03/21 14:24:07;;;;;;;;;;;;;;;;;;5070711;28;19995;-60
2024/03/21 14:26:34;;;;;;;;;;;;;;;;;;5069207;28;19924;-60
2024/03/21 14:29:00;;;;;;;;;;;;;;;;;;5066874;28;19924;-60
2024/03/21 14:31:28;;;;;;;;;;;;;;;;;;5067789;28;19924;-60
2024/03/21 14:33:54;;;;;;;;;;;;;;;;;;5069996;28;19924;-59
2024/03/21 14:36:20;;;;;;;;;;;;;;;;;;5065329;28;19921;-59
2024/03/21 14:41:39;;;;;;;;;;;;;;;;;;5077910;28;19962;-63
2024/03/21 14:44:05;;;;;;;;;;;;;;;;;;5067250;28;20381;-65
2024/03/21 14:46:33;;;;;;;;;;;;;;;;;;5068443;28;20780;-64
2024/03/21 14:48:59;;;;;;;;;;;;;;;;;;5068362;28;19920;-64
2024/03/21 14:51:25;;;;;;;;;;;;;;;;;;5058734;28;19983;-65
2024/03/21 14:53:51;;;;;;;;;;;;;;;;;;5057448;28;19921;-65
2024/03/21 14:56:17;;;;;;;;;;;;;;;;;;5070054;28;19928;-65
2024/03/21 14:58:44;;;;;;;;;;;;;;;;;;5070012;28;19958;-66
2024/03/21 15:01:10;;;;;;;;;;;;;;;;;;5064397;28;19929;-65
2024/03/21 15:03:36;;;;;;;;;;;;;;;;;;5070891;28;19947;-65
2024/03/21 15:06:03;;;;;;;;;;;;;;;;;;5070789;28;19924;-65
2024/03/21 15:08:29;;;;;;;;;;;;;;;;;;5063153;28;20519;-65
2024/03/21 15:10:55;;;;;;;;;;;;;;;;;;5067363;28;19921;-65
2024/03/21 15:13:21;;;;;;;;;;;;;;;;;;5067584;28;19928;-65
2024/03/21 15:15:47;;;;;;;;;;;;;;;;;;5072616;28;19982;-65
2024/03/21 15:18:13;;;;;;;;;;;;;;;;;;5067928;28;20301;-65
2024/03/21 15:20:41;;;;;;;;;;;;;;;;;;5066306;28;19924;-65
2024/03/21 15:23:07;;;;;;;;;;;;;;;;;;5065930;28;19921;-65
2024/03/21 15:25:33;;;;;;;;;;;;;;;;;;5061701;28;19927;-65
2024/03/21 15:27:59;;;;;;;;;;;;;;;;;;5064064;28;20301;-65
2024/03/21 15:30:25;;;;;;;;;;;;;;;;;;5063461;28;19925;-65
2024/03/21 15:32:52;;;;;;;;;;;;;;;;;;5084936;28;19921;-65
2024/03/21 15:35:20;;;;;;;;;;;;;;;;;;5070111;28;19959;-65
2024/03/21 15:37:46;;;;;;;;;;;;;;;;;;5064901;28;19929;-65
2024/03/21 15:40:12;;;;;;;;;;;;;;;;;;5083949;28;20000;-65
2024/03/21 15:42:38;;;;;;;;;;;;;;;;;;5087404;28;19927;-65
2024/03/21 15:45:04;;;;;;;;;;;;;;;;;;5078643;28;19924;-65
2024/03/21 15:47:30;;;;;;;;;;;;;;;;;;5081971;28;20378;-65
2024/03/21 15:49:56;;;;;;;;;;;;;;;;;;5093745;28;19949;-65
2024/03/21 15:52:22;;;;;;;;;;;;;;;;;;5083143;28;20015;-65
2024/03/21 15:54:48;;;;;;;;;;;;;;;;;;5071700;28;20050;-65
2024/03/21 15:57:14;;;;;;;;;;;;;;;;;;5033435;28;19921;-65
2024/03/21 15:59:40;;;;;;;;;;;;;;;;;;5059258;28;19933;-65
2024/03/21 16:02:07;;;;;;;;;;;;;;;;;;5066470;28;20282;-65
2024/03/21 16:04:34;;;;;;;;;;;;;;;;;;5057122;28;20290;-65
2024/03/21 16:20:15;;;;;;;;;;;;;;;;;;5085238;27;19912;-65
2024/03/21 16:22:43;;;;;;;;;;;;;;;;;;5069037;28;19927;-65
2024/03/21 16:25:08;;;;;;;;;;;;;;;;;;5068767;28;19927;-65
2024/03/21 16:27:34;;;;;;;;;;;;;;;;;;5063162;28;19925;-65
2024/03/21 16:30:00;;;;;;;;;;;;;;;;;;5081311;28;20029;-65
2024/03/21 16:32:26;;;;;;;;;;;;;;;;;;5048775;28;19925;-63
2024/03/21 16:34:52;;;;;;;;;;;;;;;;;;5061686;28;20011;-63
2024/03/21 16:37:18;;;;;;;;;;;;;;;;;;5067166;28;19920;-63
2024/03/21 16:39:44;;;;;;;;;;;;;;;;;;5068586;28;19935;-63
2024/03/21 16:42:10;;;;;;;;;;;;;;;;;;5053425;28;19921;-63
2024/03/21 16:44:36;;;;;;;;;;;;;;;;;;5060902;28;19920;-64
2024/03/21 16:47:02;;;;;;;;;;;;;;;;;;5100538;28;19921;-64
2024/03/21 16:49:28;;;;;;;;;;;;;;;;;;5068192;28;19979;-64
2024/03/21 16:51:54;;;;;;;;;;;;;;;;;;5068350;28;20372;-64
2024/03/21 16:54:20;;;;;;;;;;;;;;;;;;5068188;28;20070;-65
2024/03/21 16:56:46;;;;;;;;;;;;;;;;;;5068187;28;20023;-65